Time;durP1;ratioP1;P1;durP2;ratioP2;P2;SDS_P1;SDS_P2;PMS_P1;PMS_P2;Temp;Humidity;BMP_temperature;BMP_pressure;BME280_temperature;BME280_humidity;BME280_pressure;Samples;Min_cycle;Max_cycle;Signal;HPM_P1;HPM_P2
2021/01/22 00:01:17;;;;;;;;;;;;;;;16.63;64.57;101390.66;5000928;28;1640;-58
2021/01/22 00:03:42;;;;;;;;;;;;;;;16.61;64.63;101395.25;5010068;28;1580;-58
2021/01/22 00:06:07;;;;;;;;;;;;;;;16.63;64.17;101402.22;5002660;28;1584;-58
2021/01/22 00:08:33;;;;;;;;;;;;;;;16.58;64.12;101390.16;5001736;28;1552;-58
2021/01/22 00:10:58;;;;;;;;;;;;;;;16.53;63.42;101385.09;5000825;28;1521;-59
2021/01/22 00:13:23;;;;;;;;;;;;;;;16.53;64.60;101389.59;5007519;28;1973;-73
2021/01/22 00:15:49;;;;;;;;;;;;;;;16.50;64.77;101379.97;5001894;28;1587;-73
2021/01/22 00:18:14;;;;;;;;;;;;;;;16.52;63.36;101386.06;5003609;28;1612;-72
2021/01/22 00:20:39;;;;;;;;;;;;;;;16.48;64.63;101379.22;5009441;28;1572;-58
2021/01/22 00:23:05;;;;;;;;;;;;;;;16.49;64.33;101378.25;5014276;28;1370;-73
2021/01/22 00:25:30;;;;;;;;;;;;;;;16.47;64.41;101366.81;5004872;28;1497;-67
2021/01/22 00:27:56;;;;;;;;;;;;;;;16.45;63.49;101371.41;5010452;28;1568;-58
2021/01/22 00:30:21;;;;;;;;;;;;;;;16.47;64.28;101382.84;5006264;28;1505;-73
2021/01/22 00:32:47;;;;;;;;;;;;;;;16.40;64.78;101368.22;5008994;28;1944;-58
2021/01/22 00:35:12;;;;;;;;;;;;;;;16.40;64.71;101374.41;5002038;28;1520;-72
2021/01/22 00:37:38;;;;;;;;;;;;;;;16.37;64.57;101363.09;5010064;28;1580;-58
2021/01/22 00:40:04;;;;;;;;;;;;;;;16.34;63.82;101358.81;5003710;28;1509;-73
2021/01/22 00:42:29;;;;;;;;;;;;;;;16.36;64.78;101372.91;5007512;28;1532;-72
2021/01/22 00:44:55;;;;;;;;;;;;;;;16.33;64.59;101358.91;5005386;28;1484;-72
2021/01/22 00:47:20;;;;;;;;;;;;;;;16.33;64.25;101361.56;5006974;28;1307;-72
2021/01/22 00:49:45;;;;;;;;;;;;;;;16.28;64.18;101360.06;5005742;28;1537;-59
2021/01/22 00:52:10;;;;;;;;;;;;;;;16.26;63.66;101359.31;5005903;28;1595;-58
2021/01/22 00:54:36;;;;;;;;;;;;;;;16.26;64.13;101351.31;5002664;28;1949;-58
2021/01/22 00:57:01;;;;;;;;;;;;;;;16.26;64.61;101356.66;5006198;28;1485;-58
2021/01/22 00:59:26;;;;;;;;;;;;;;;16.25;64.58;101354.97;5010446;28;1493;-58
2021/01/22 01:01:52;;;;;;;;;;;;;;;16.27;64.58;101352.16;4998071;28;1585;-73
2021/01/22 01:04:17;;;;;;;;;;;;;;;16.23;63.46;101353.34;5005445;28;1608;-73
2021/01/22 01:06:43;;;;;;;;;;;;;;;16.29;64.41;101352.91;5008105;28;1473;-73
2021/01/22 01:09:08;;;;;;;;;;;;;;;16.23;63.90;101330.16;5002163;28;1426;-73
2021/01/22 01:11:34;;;;;;;;;;;;;;;16.22;64.14;101339.13;5012079;28;1470;-59
2021/01/22 01:13:59;;;;;;;;;;;;;;;16.22;64.02;101344.47;5012426;28;1914;-72
2021/01/22 01:16:24;;;;;;;;;;;;;;;16.23;63.91;101337.31;5004916;28;1530;-58
2021/01/22 01:18:50;;;;;;;;;;;;;;;16.22;63.53;101339.13;5008942;28;1647;-58
2021/01/22 01:21:15;;;;;;;;;;;;;;;16.20;64.37;101341.06;5002151;28;1576;-72
2021/01/22 01:23:40;;;;;;;;;;;;;;;16.19;63.50;101346.50;5007754;28;1536;-58
2021/01/22 01:26:06;;;;;;;;;;;;;;;16.19;63.56;101342.00;5005569;28;1509;-59
2021/01/22 01:28:32;;;;;;;;;;;;;;;16.20;63.44;101342.88;4999999;28;1556;-73
2021/01/22 01:30:58;;;;;;;;;;;;;;;16.17;64.37;101335.91;5001383;28;1628;-73
2021/01/22 01:33:23;;;;;;;;;;;;;;;16.15;63.36;101332.50;5002713;28;1898;-72
2021/01/22 01:35:51;;;;;;;;;;;;;;;16.20;63.18;101337.53;5008325;28;1516;-72
2021/01/22 01:38:17;;;;;;;;;;;;;;;16.17;63.38;101333.25;5004721;28;1576;-58
2021/01/22 01:40:43;;;;;;;;;;;;;;;16.14;64.35;101329.97;5006763;28;1477;-59
2021/01/22 01:43:08;;;;;;;;;;;;;;;16.15;63.34;101326.31;5000740;28;1584;-72
2021/01/22 01:45:36;;;;;;;;;;;;;;;16.16;64.23;101326.22;5008816;28;1540;-59
2021/01/22 01:48:01;;;;;;;;;;;;;;;16.11;64.35;101314.97;5007227;28;1524;-72
2021/01/22 01:50:27;;;;;;;;;;;;;;;16.08;63.40;101310.72;5004569;28;1443;-72
2021/01/22 01:52:52;;;;;;;;;;;;;;;16.09;63.89;101323.13;5005300;28;1961;-72
2021/01/22 03:34:27;;;;;;;;;;;;;;;15.91;65.45;101292.31;5070349;28;1975;-63
2021/01/22 03:36:54;;;;;;;;;;;;;;;15.89;65.97;101295.06;5074173;28;1520;-59
2021/01/22 03:39:20;;;;;;;;;;;;;;;15.89;66.28;101289.75;5073312;28;1572;-62
2021/01/22 03:41:45;;;;;;;;;;;;;;;15.86;66.07;101289.97;5073840;28;1533;-58
2021/01/22 03:44:10;;;;;;;;;;;;;;;15.82;66.70;101277.78;5073721;28;1469;-58
2021/01/22 03:46:36;;;;;;;;;;;;;;;15.82;65.26;101277.78;5054868;28;1536;-73
2021/01/22 03:49:01;;;;;;;;;;;;;;;15.86;65.70;101284.63;5072901;28;1509;-58
2021/01/22 03:51:26;;;;;;;;;;;;;;;15.89;65.75;101289.75;5072459;28;1496;-58
2021/01/22 03:53:54;;;;;;;;;;;;;;;15.90;66.06;101278.13;5075110;28;1910;-73
2021/01/22 03:56:19;;;;;;;;;;;;;;;15.89;66.38;101283.56;5077832;28;1258;-71
2021/01/22 03:58:44;;;;;;;;;;;;;;;15.87;65.36;101277.47;5059471;28;1361;-71
2021/01/22 04:01:10;;;;;;;;;;;;;;;15.86;66.22;101284.63;5077286;28;1251;-71
2021/01/22 04:03:35;;;;;;;;;;;;;;;15.84;65.88;101291.03;5076631;28;1278;-71
2021/01/22 04:06:00;;;;;;;;;;;;;;;15.82;65.27;101293.78;5059506;28;1363;-72
2021/01/22 04:08:26;;;;;;;;;;;;;;;15.83;65.94;101295.50;5057828;28;1277;-71
2021/01/22 04:10:51;;;;;;;;;;;;;;;15.80;65.13;101289.53;5078082;28;1502;-71
2021/01/22 04:13:17;;;;;;;;;;;;;;;15.74;65.45;101288.13;5077568;28;1961;-71
2021/01/22 04:15:42;;;;;;;;;;;;;;;15.78;64.88;101297.63;5077542;28;1385;-70
2021/01/22 04:18:07;;;;;;;;;;;;;;;15.77;64.84;101306.56;5058869;28;1678;-71
2021/01/22 04:20:34;;;;;;;;;;;;;;;15.73;65.58;101296.22;5077309;28;1459;-71
2021/01/22 04:23:00;;;;;;;;;;;;;;;15.73;64.84;101305.06;5060274;28;1168;-59
2021/01/22 04:25:25;;;;;;;;;;;;;;;15.72;64.57;101292.66;5077669;28;1233;-59
2021/01/22 04:27:51;;;;;;;;;;;;;;;15.75;65.47;101286.28;5077499;28;1379;-71
2021/01/22 04:30:16;;;;;;;;;;;;;;;15.70;65.92;101287.44;5077801;28;733;-71
2021/01/22 04:32:41;;;;;;;;;;;;;;;15.72;64.40;101276.66;5057030;28;1910;-58
2021/01/22 04:35:11;;;;;;;;;;;;;;;15.71;64.70;101296.28;5077480;28;1427;-71
2021/01/22 04:37:36;;;;;;;;;;;;;;;15.75;65.31;101287.16;5077444;28;1571;-60
2021/01/22 04:40:01;;;;;;;;;;;;;;;15.72;65.31;101279.34;5077593;28;1356;-71
2021/01/22 04:42:27;;;;;;;;;;;;;;;15.70;64.26;101281.25;5076956;28;1411;-71
2021/01/22 04:44:52;;;;;;;;;;;;;;;15.69;64.18;101276.84;5077258;28;1446;-71
2021/01/22 04:47:18;;;;;;;;;;;;;;;15.70;65.00;101275.91;5077138;28;1372;-71
2021/01/22 04:49:45;;;;;;;;;;;;;;;15.67;64.28;101274.28;5075804;28;1426;-59
2021/01/22 04:52:11;;;;;;;;;;;;;;;15.66;64.48;101277.06;5058909;28;1416;-71
2021/01/22 04:54:41;;;;;;;;;;;;;;;15.67;64.69;101273.44;5075802;28;1906;-60
2021/01/22 04:57:07;;;;;;;;;;;;;;;15.64;64.68;101269.16;5056192;28;1451;-59
2021/01/22 04:59:48;;;;;;;;;;;;;;;15.65;64.34;101264.69;5075299;28;1566;-71
2021/01/22 05:02:14;;;;;;;;;;;;;;;15.66;64.33;101277.06;5059154;28;1380;-61
2021/01/22 05:04:40;;;;;;;;;;;;;;;15.67;64.24;101270.78;5075605;28;1332;-70
2021/01/22 05:07:08;;;;;;;;;;;;;;;15.66;64.00;101267.25;5076467;28;1376;-59
2021/01/22 05:09:34;;;;;;;;;;;;;;;15.66;64.98;101277.06;5072596;28;1367;-59
2021/01/22 05:12:00;;;;;;;;;;;;;;;15.64;64.20;101273.66;5076896;28;1201;-71
2021/01/22 05:14:26;;;;;;;;;;;;;;;15.67;64.69;101278.78;5076923;28;1949;-70
2021/01/22 05:17:08;;;;;;;;;;;;;;;15.64;65.06;101281.66;5076683;28;1328;-71
2021/01/22 05:19:34;;;;;;;;;;;;;;;15.65;64.86;101283.34;5059235;28;1400;-59
2021/01/22 05:22:00;;;;;;;;;;;;;;;15.64;63.70;101292.31;5076596;28;1416;-58
2021/01/22 05:24:26;;;;;;;;;;;;;;;15.60;64.42;101270.34;5076616;28;1462;-70
2021/01/22 05:27:02;;;;;;;;;;;;;;;15.58;63.76;101263.38;5055277;28;1435;-58
2021/01/22 05:29:28;;;;;;;;;;;;;;;15.61;64.59;101281.84;5074125;28;1443;-59
2021/01/22 05:31:54;;;;;;;;;;;;;;;15.60;64.45;101280.16;5055199;28;1380;-71
2021/01/22 05:34:19;;;;;;;;;;;;;;;15.56;63.86;101265.28;5050190;28;1914;-59
2021/01/22 05:36:46;;;;;;;;;;;;;;;15.55;64.75;101268.91;5056580;28;1400;-58
2021/01/22 05:39:19;;;;;;;;;;;;;;;15.62;64.67;101271.09;5055810;28;1460;-71
2021/01/22 05:41:51;;;;;;;;;;;;;;;15.58;63.68;101272.25;5056122;28;1499;-58
2021/01/22 05:44:20;;;;;;;;;;;;;;;15.60;64.20;101277.47;5055225;28;1424;-58
2021/01/22 05:47:06;;;;;;;;;;;;;;;15.60;64.40;101270.34;5055661;28;1275;-71
2021/01/22 05:49:31;;;;;;;;;;;;;;;15.56;64.12;101259.94;4694272;28;10001573;-71
2021/01/22 05:51:57;;;;;;;;;;;;;;;15.58;63.60;101269.56;5045014;28;1637;-71
2021/01/22 05:54:32;;;;;;;;;;;;;;;15.57;64.08;101262.53;5046094;28;1918;-71
2021/01/22 05:56:57;;;;;;;;;;;;;;;15.55;63.94;101250.25;5041009;28;1472;-71
2021/01/22 05:59:23;;;;;;;;;;;;;;;15.57;63.99;101259.00;5040834;28;1413;-71
2021/01/22 06:01:48;;;;;;;;;;;;;;;15.52;64.03;101249.50;5031306;28;1445;-72
2021/01/22 06:04:14;;;;;;;;;;;;;;;15.50;64.52;101253.25;5041162;28;1408;-72
2021/01/22 06:06:39;;;;;;;;;;;;;;;15.55;63.71;101243.09;5042032;28;1214;-71
2021/01/22 06:09:05;;;;;;;;;;;;;;;15.50;64.36;101238.09;5046466;28;1452;-72
2021/01/22 06:11:31;;;;;;;;;;;;;;;15.52;63.49;101249.50;5045662;28;1519;-71
2021/01/22 06:14:03;;;;;;;;;;;;;;;15.51;63.16;101242.44;5044942;28;1960;-72
2021/01/22 06:16:29;;;;;;;;;;;;;;;15.57;63.92;101245.69;5043056;28;1432;-72
2021/01/22 06:18:58;;;;;;;;;;;;;;;15.61;63.84;101258.69;5040614;28;1475;-72
2021/01/22 06:21:34;;;;;;;;;;;;;;;15.59;64.06;101249.09;5042412;28;1499;-72
2021/01/22 06:24:03;;;;;;;;;;;;;;;15.63;64.13;101262.13;5045332;28;1503;-71
2021/01/22 06:26:32;;;;;;;;;;;;;;;15.61;63.58;101241.84;5041126;28;1424;-72
2021/01/22 06:29:01;;;;;;;;;;;;;;;15.59;63.67;101247.28;5040028;28;1345;-72
2021/01/22 06:31:28;;;;;;;;;;;;;;;15.62;63.86;101254.25;5040778;28;1242;-72
2021/01/22 06:33:54;;;;;;;;;;;;;;;15.58;63.42;101247.38;5047223;28;1934;-72
2021/01/22 06:36:20;;;;;;;;;;;;;;;15.59;63.18;101249.09;5043905;28;1436;-59
2021/01/22 06:38:45;;;;;;;;;;;;;;;15.60;63.69;101261.47;5046403;28;1456;-59
2021/01/22 06:41:11;;;;;;;;;;;;;;;15.58;62.85;101255.38;5045409;28;1445;-58
2021/01/22 06:43:37;;;;;;;;;;;;;;;15.58;63.14;101250.03;5047231;28;1405;-59
2021/01/22 06:46:06;;;;;;;;;;;;;;;15.59;63.18;101249.94;5045612;28;1238;-58
2021/01/22 06:48:55;;;;;;;;;;;;;;;15.59;63.51;101247.28;5043397;28;2195;-58
2021/01/22 06:51:21;;;;;;;;;;;;;;;15.61;62.45;101247.19;5033815;28;1966;-72
2021/01/22 06:54:05;;;;;;;;;;;;;;;15.58;63.47;101244.72;5044448;28;1926;-72
2021/01/22 06:56:32;;;;;;;;;;;;;;;15.60;62.29;101250.81;5040003;28;1469;-72
2021/01/22 06:59:16;;;;;;;;;;;;;;;15.63;62.67;101251.44;5046420;28;1360;-72
2021/01/22 07:01:41;;;;;;;;;;;;;;;15.62;62.50;101243.56;5043056;28;1448;-72
2021/01/22 07:04:07;;;;;;;;;;;;;;;15.59;63.56;101247.28;5044095;28;1420;-69
2021/01/22 07:06:35;;;;;;;;;;;;;;;15.66;62.94;101245.09;5040640;28;1500;-73
2021/01/22 07:09:04;;;;;;;;;;;;;;;15.68;65.40;101233.34;5040471;28;1448;-72
2021/01/22 07:11:48;;;;;;;;;;;;;;;15.67;65.86;101236.09;5044633;28;1483;-59
2021/01/22 07:14:32;;;;;;;;;;;;;;;15.66;65.53;101224.59;5042535;28;1983;-59
2021/01/22 07:16:57;;;;;;;;;;;;;;;15.66;65.20;101218.41;5045359;28;1411;-59
2021/01/22 07:19:23;;;;;;;;;;;;;;;15.65;64.74;101216.69;5043540;28;1428;-71
2021/01/22 07:21:49;;;;;;;;;;;;;;;15.64;65.52;101209.66;5015057;28;1426;-72
2021/01/22 07:24:17;;;;;;;;;;;;;;;15.71;65.79;101224.28;5046600;28;1395;-71
2021/01/22 07:26:46;;;;;;;;;;;;;;;15.81;65.10;101228.06;5039118;28;1471;-67
2021/01/22 07:29:32;;;;;;;;;;;;;;;15.81;65.51;101228.06;5024952;28;1520;-59
2021/01/22 07:32:02;;;;;;;;;;;;;;;15.85;64.95;101213.56;5046999;28;2262;-68
2021/01/22 07:34:36;;;;;;;;;;;;;;;15.84;64.52;101211.03;5038572;28;1910;-67
2021/01/22 07:37:05;;;;;;;;;;;;;;;15.84;64.45;101203.88;5048162;28;1353;-60
2021/01/22 07:39:30;;;;;;;;;;;;;;;15.87;64.92;101216.97;5052908;28;1385;-67
2021/01/22 07:42:09;;;;;;;;;;;;;;;15.87;65.83;101198.31;5054268;28;1503;-65
2021/01/22 07:44:35;;;;;;;;;;;;;;;15.96;66.06;101193.34;5054290;28;1365;-65
2021/01/22 07:47:00;;;;;;;;;;;;;;;15.89;65.63;101212.41;5053898;28;1337;-65
2021/01/22 07:49:26;;;;;;;;;;;;;;;15.99;65.26;101212.63;5054216;28;1412;-61
2021/01/22 07:51:52;;;;;;;;;;;;;;;15.95;64.12;101196.94;5053716;28;1448;-59
2021/01/22 07:54:17;;;;;;;;;;;;;;;15.95;65.33;101199.63;5049794;28;1910;-58
2021/01/22 07:56:42;;;;;;;;;;;;;;;15.91;65.86;101188.28;5035445;28;2019;-64
2021/01/22 07:59:10;;;;;;;;;;;;;;;15.96;65.14;101188.00;5036126;28;1412;-65
2021/01/22 08:01:36;;;;;;;;;;;;;;;15.98;63.49;101181.59;5052923;28;1341;-58
2021/01/22 08:04:02;;;;;;;;;;;;;;;16.03;65.28;101199.94;5053992;28;1458;-64
2021/01/22 08:06:27;;;;;;;;;;;;;;;16.01;65.81;101180.53;5054587;28;752;-58
2021/01/22 08:09:04;;;;;;;;;;;;;;;15.99;65.15;101188.63;5054364;28;778;-58
2021/01/22 08:11:29;;;;;;;;;;;;;;;16.04;65.18;101193.66;5053971;28;741;-64
2021/01/22 08:13:54;;;;;;;;;;;;;;;15.99;65.52;101198.44;5054260;28;1965;-64
2021/01/22 08:16:24;;;;;;;;;;;;;;;15.97;64.94;101192.38;5054368;28;757;-58
2021/01/22 08:18:50;;;;;;;;;;;;;;;15.96;64.81;101193.34;5054256;28;749;-63
2021/01/22 08:21:15;;;;;;;;;;;;;;;15.97;65.24;101195.03;5036581;28;1371;-63
2021/01/22 08:23:42;;;;;;;;;;;;;;;16.02;65.07;101199.09;5054109;28;880;-64
2021/01/22 08:26:08;;;;;;;;;;;;;;;16.07;64.85;101196.09;5054100;28;757;-64
2021/01/22 08:28:34;;;;;;;;;;;;;;;16.14;64.85;101197.41;5053944;28;880;-58
2021/01/22 08:30:59;;;;;;;;;;;;;;;16.21;64.67;101195.16;5054302;28;753;-64
2021/01/22 08:33:25;;;;;;;;;;;;;;;16.16;63.75;101199.97;5053961;28;1989;-57
2021/01/22 08:35:50;;;;;;;;;;;;;;;16.05;64.76;101192.69;5053990;28;805;-58
2021/01/22 08:38:16;;;;;;;;;;;;;;;16.04;64.31;101199.00;5054055;28;836;-64
2021/01/22 08:40:43;;;;;;;;;;;;;;;16.04;63.86;101188.31;5056775;28;919;-58
2021/01/22 08:43:09;;;;;;;;;;;;;;;16.03;65.16;101190.13;5057567;28;780;-58
2021/01/22 08:45:53;;;;;;;;;;;;;;;15.99;64.17;101191.28;5039993;28;784;-57
2021/01/22 08:48:28;;;;;;;;;;;;;;;15.98;64.92;101188.75;5057615;28;903;-63
2021/01/22 08:50:57;;;;;;;;;;;;;;;16.02;64.85;101190.25;5057470;28;914;-63
2021/01/22 08:53:22;;;;;;;;;;;;;;;15.97;64.52;101184.34;5057370;28;1930;-58
2021/01/22 08:55:47;;;;;;;;;;;;;;;15.96;64.57;101177.34;5057351;28;891;-58
2021/01/22 08:58:14;;;;;;;;;;;;;;;15.99;64.81;101187.78;5057426;28;788;-63
2021/01/22 09:00:40;;;;;;;;;;;;;;;16.00;63.82;101178.81;5057518;28;789;-61
2021/01/22 09:03:18;;;;;;;;;;;;;;;15.98;64.85;101181.59;5057219;28;717;-58
2021/01/22 09:05:53;;;;;;;;;;;;;;;15.98;64.74;101191.41;5057430;28;822;-58
2021/01/22 09:08:20;;;;;;;;;;;;;;;15.95;64.13;101170.28;5057292;28;725;-57
2021/01/22 09:10:46;;;;;;;;;;;;;;;15.99;64.96;101163.75;5057232;28;800;-63
2021/01/22 09:13:16;;;;;;;;;;;;;;;15.99;64.66;101163.75;5057210;28;1902;-58
2021/01/22 09:15:41;;;;;;;;;;;;;;;15.96;64.72;101153.31;5057151;28;757;-58
2021/01/22 09:18:20;;;;;;;;;;;;;;;15.98;64.42;101154.06;5039325;28;746;-63
2021/01/22 09:20:55;;;;;;;;;;;;;;;15.93;65.01;101145.53;5057123;28;767;-64
2021/01/22 09:23:21;;;;;;;;;;;;;;;15.98;64.02;101146.06;5057047;28;830;-58
2021/01/22 09:25:46;;;;;;;;;;;;;;;15.94;64.61;101137.44;5056981;28;836;-58
2021/01/22 09:28:11;;;;;;;;;;;;;;;15.98;64.52;101154.06;5057062;28;801;-58
2021/01/22 09:30:36;;;;;;;;;;;;;;;15.97;64.72;101133.69;5056852;28;805;-58
2021/01/22 09:33:02;;;;;;;;;;;;;;;15.95;63.37;101136.44;5025952;28;1978;-58
2021/01/22 09:35:28;;;;;;;;;;;;;;;15.93;63.93;101134.84;5076766;28;919;-58
2021/01/22 09:37:54;;;;;;;;;;;;;;;15.90;64.08;101128.78;5077179;28;769;-58
2021/01/22 09:40:19;;;;;;;;;;;;;;;15.91;63.90;101121.63;5076722;28;826;-58
2021/01/22 09:42:45;;;;;;;;;;;;;;;15.98;64.51;101122.06;5076364;28;730;-63
2021/01/22 09:45:11;;;;;;;;;;;;;;;15.95;64.41;101108.94;5076650;28;774;-58
2021/01/22 09:47:37;;;;;;;;;;;;;;;16.00;63.04;101107.66;5076969;28;785;-58
2021/01/22 09:50:06;;;;;;;;;;;;;;;15.95;64.41;101090.25;5076332;28;800;-58
2021/01/22 09:52:33;;;;;;;;;;;;;;;15.96;64.42;101090.16;5075426;28;1159;-64
2021/01/22 09:54:58;;;;;;;;;;;;;;;15.91;64.00;101090.47;5076395;28;1948;-58
2021/01/22 09:57:24;;;;;;;;;;;;;;;15.94;64.46;101081.41;5076132;28;729;-58
2021/01/22 09:59:49;;;;;;;;;;;;;;;16.00;64.25;101093.47;5076126;28;713;-63
2021/01/22 10:02:14;;;;;;;;;;;;;;;15.99;64.06;101081.06;5075942;28;987;-64
2021/01/22 10:04:39;;;;;;;;;;;;;;;15.96;63.77;101078.66;5075978;28;1306;-63
2021/01/22 10:07:05;;;;;;;;;;;;;;;15.98;64.07;101072.22;5075969;28;754;-58
2021/01/22 10:09:30;;;;;;;;;;;;;;;15.91;63.28;101074.47;5076168;28;861;-58
2021/01/22 10:11:56;;;;;;;;;;;;;;;15.95;64.32;101080.44;5075880;28;702;-64
2021/01/22 10:14:21;;;;;;;;;;;;;;;15.89;64.13;101064.88;5075792;28;1949;-64
2021/01/22 10:16:47;;;;;;;;;;;;;;;15.89;64.42;101060.38;5075744;28;841;-63
2021/01/22 10:19:12;;;;;;;;;;;;;;;15.90;63.48;101061.25;5075711;28;871;-58
2021/01/22 10:21:37;;;;;;;;;;;;;;;15.86;63.43;101065.94;5058139;28;1140;-64
2021/01/22 10:24:03;;;;;;;;;;;;;;;15.85;64.43;101058.88;5075925;28;841;-58
2021/01/22 10:26:28;;;;;;;;;;;;;;;15.88;64.50;101056.03;5075610;28;846;-58
2021/01/22 10:28:54;;;;;;;;;;;;;;;15.85;63.80;101058.03;5075490;28;792;-64
2021/01/22 10:31:20;;;;;;;;;;;;;;;15.87;64.13;101050.78;5075520;28;757;-58
2021/01/22 10:33:46;;;;;;;;;;;;;;;15.89;63.32;101049.72;5075176;28;1951;-64
2021/01/22 10:36:12;;;;;;;;;;;;;;;15.87;64.24;101035.63;5075352;28;799;-65
2021/01/22 10:38:37;;;;;;;;;;;;;;;15.89;64.16;101030.19;5075389;28;793;-58
2021/01/22 10:41:03;;;;;;;;;;;;;;;15.88;63.79;101032.03;5075277;28;741;-57
2021/01/22 10:43:29;;;;;;;;;;;;;;;15.94;64.06;101037.91;5075512;28;793;-63
2021/01/22 10:45:54;;;;;;;;;;;;;;;15.96;64.16;101033.31;5075271;28;760;-63
2021/01/22 10:48:20;;;;;;;;;;;;;;;15.97;63.70;101027.84;5057605;28;1352;-58
2021/01/22 10:50:46;;;;;;;;;;;;;;;15.95;64.28;101020.91;5057612;28;1156;-64
2021/01/22 10:53:11;;;;;;;;;;;;;;;15.97;62.80;101019.00;5075191;28;1941;-60
2021/01/22 10:55:36;;;;;;;;;;;;;;;15.94;63.76;101014.72;5075027;28;904;-58
2021/01/22 10:58:02;;;;;;;;;;;;;;;15.90;64.36;101013.25;5075315;28;758;-58
2021/01/22 11:00:27;;;;;;;;;;;;;;;15.89;63.16;101012.38;5075276;28;833;-64
2021/01/22 11:02:52;;;;;;;;;;;;;;;15.82;63.38;100995.13;5075199;28;833;-64
2021/01/22 11:05:18;;;;;;;;;;;;;;;15.87;63.65;101005.44;5074896;28;854;-63
2021/01/22 11:07:43;;;;;;;;;;;;;;;15.86;64.36;100999.28;5075220;28;759;-64
2021/01/22 11:10:08;;;;;;;;;;;;;;;15.86;63.43;101004.59;5075152;28;782;-64
2021/01/22 11:12:34;;;;;;;;;;;;;;;15.86;64.34;100993.94;5075130;28;741;-63
2021/01/22 11:14:59;;;;;;;;;;;;;;;15.88;63.62;100992.00;5074773;28;1907;-64
2021/01/22 11:17:24;;;;;;;;;;;;;;;15.93;63.83;100988.16;5075041;28;804;-58
2021/01/22 11:19:49;;;;;;;;;;;;;;;15.93;62.87;100985.50;5074804;28;777;-64
2021/01/22 11:22:15;;;;;;;;;;;;;;;15.93;63.95;100981.00;5075039;28;809;-64
2021/01/22 11:24:40;;;;;;;;;;;;;;;16.00;63.82;100976.94;5074812;28;827;-58
2021/01/22 11:27:05;;;;;;;;;;;;;;;16.05;63.21;100973.94;5057094;28;1349;-64
2021/01/22 11:29:31;;;;;;;;;;;;;;;16.08;63.39;100973.72;5074782;28;729;-57
2021/01/22 11:31:56;;;;;;;;;;;;;;;16.11;63.54;100962.81;5074763;28;844;-58
2021/01/22 11:34:21;;;;;;;;;;;;;;;16.08;63.55;100966.56;5074394;28;1909;-63
2021/01/22 11:36:47;;;;;;;;;;;;;;;16.16;62.91;100963.34;5074736;28;776;-63
2021/01/22 11:39:12;;;;;;;;;;;;;;;16.19;63.13;100962.25;5074610;28;788;-64
2021/01/22 11:41:37;;;;;;;;;;;;;;;16.17;62.61;100957.03;5074476;28;784;-64
2021/01/22 11:44:02;;;;;;;;;;;;;;;16.19;62.82;100956.94;5074908;28;811;-64
2021/01/22 11:46:28;;;;;;;;;;;;;;;16.21;62.25;100963.00;5074703;28;824;-58
2021/01/22 11:48:53;;;;;;;;;;;;;;;16.18;63.38;100953.41;5074575;28;813;-58
2021/01/22 11:51:19;;;;;;;;;;;;;;;16.14;63.42;100957.28;5074639;28;725;-58
2021/01/22 11:53:44;;;;;;;;;;;;;;;16.16;62.90;100946.50;5074567;28;1960;-58
2021/01/22 11:56:09;;;;;;;;;;;;;;;16.23;62.20;100951.25;5074791;28;817;-64
2021/01/22 11:58:35;;;;;;;;;;;;;;;16.20;62.62;100950.66;5074513;28;868;-58
2021/01/22 12:01:00;;;;;;;;;;;;;;;16.20;62.71;100930.13;5074689;28;766;-58
2021/01/22 12:03:25;;;;;;;;;;;;;;;16.20;63.18;100939.97;5074394;28;1481;-58
2021/01/22 12:05:51;;;;;;;;;;;;;;;16.19;63.13;100935.59;5074539;28;841;-64
2021/01/22 12:08:16;;;;;;;;;;;;;;;16.21;62.87;100931.81;5074256;28;852;-63
2021/01/22 12:10:41;;;;;;;;;;;;;;;16.30;62.37;100941.00;5074247;28;856;-59
2021/01/22 12:13:06;;;;;;;;;;;;;;;16.32;63.01;100938.22;5074163;28;1893;-64
2021/01/22 12:15:32;;;;;;;;;;;;;;;16.34;61.81;100920.28;5076700;28;944;-57
2021/01/22 12:17:57;;;;;;;;;;;;;;;16.39;62.32;100920.75;5060355;28;1219;-64
2021/01/22 12:20:23;;;;;;;;;;;;;;;16.38;63.02;100919.06;5078042;28;694;-63
2021/01/22 12:22:48;;;;;;;;;;;;;;;16.34;62.34;100910.44;5060400;28;1381;-58
2021/01/22 12:25:13;;;;;;;;;;;;;;;16.32;62.34;100914.19;5077909;28;778;-58
2021/01/22 12:27:39;;;;;;;;;;;;;;;16.29;62.43;100910.78;5077992;28;753;-63
2021/01/22 12:30:04;;;;;;;;;;;;;;;16.26;62.54;100897.66;5077814;28;807;-58
2021/01/22 12:32:30;;;;;;;;;;;;;;;16.24;63.53;100902.25;5077991;28;1385;-58
2021/01/22 12:34:56;;;;;;;;;;;;;;;16.20;62.68;100897.28;5077538;28;1967;-63
2021/01/22 12:37:21;;;;;;;;;;;;;;;16.20;63.22;100895.47;5077980;28;804;-63
2021/01/22 12:39:46;;;;;;;;;;;;;;;16.21;63.41;100894.47;5077932;28;801;-58
2021/01/22 12:42:11;;;;;;;;;;;;;;;16.20;63.52;100884.78;5060079;28;1140;-58
2021/01/22 12:44:37;;;;;;;;;;;;;;;16.18;63.73;100878.72;5077586;28;749;-64
2021/01/22 12:47:02;;;;;;;;;;;;;;;16.21;63.46;100883.81;5077548;28;903;-58
2021/01/22 12:49:27;;;;;;;;;;;;;;;16.20;62.23;100868.78;5077560;28;847;-63
2021/01/22 12:51:53;;;;;;;;;;;;;;;16.24;62.17;100882.75;5077429;28;926;-58
2021/01/22 12:54:18;;;;;;;;;;;;;;;16.22;63.19;100874.84;5077262;28;1886;-58
2021/01/22 12:56:43;;;;;;;;;;;;;;;16.21;63.48;100882.97;5077634;28;814;-58
2021/01/22 12:59:08;;;;;;;;;;;;;;;16.19;63.55;100876.88;5077587;28;754;-64
2021/01/22 13:01:33;;;;;;;;;;;;;;;16.16;63.14;100871.78;5077220;28;781;-64
2021/01/22 13:03:59;;;;;;;;;;;;;;;16.15;63.38;100870.91;5077211;28;744;-64
2021/01/22 13:06:24;;;;;;;;;;;;;;;16.15;63.33;100868.25;5077203;28;734;-58
2021/01/22 13:08:49;;;;;;;;;;;;;;;16.14;62.17;100879.91;5059561;28;1342;-64
2021/01/22 13:11:14;;;;;;;;;;;;;;;16.07;63.40;100860.81;5077353;28;800;-58
2021/01/22 13:13:40;;;;;;;;;;;;;;;16.12;63.08;100859.66;5059353;28;1961;-64
2021/01/22 13:16:05;;;;;;;;;;;;;;;16.17;62.54;100860.97;5077206;28;932;-64
2021/01/22 13:18:31;;;;;;;;;;;;;;;16.15;62.88;100868.25;5077038;28;852;-64
2021/01/22 13:20:56;;;;;;;;;;;;;;;16.14;62.51;100861.22;5076840;28;802;-58
2021/01/22 13:23:21;;;;;;;;;;;;;;;16.17;63.46;100865.47;5077075;28;800;-58
2021/01/22 13:25:47;;;;;;;;;;;;;;;16.17;62.74;100855.66;5075680;28;745;-58
2021/01/22 13:28:12;;;;;;;;;;;;;;;16.22;62.21;100874.84;5076541;28;919;-58
2021/01/22 13:30:37;;;;;;;;;;;;;;;16.22;62.20;100869.50;5077066;28;800;-58
2021/01/22 13:33:02;;;;;;;;;;;;;;;16.19;63.19;100863.53;5076637;28;1981;-58
2021/01/22 13:35:28;;;;;;;;;;;;;;;16.18;63.25;100862.69;5076613;28;856;-64
2021/01/22 13:37:53;;;;;;;;;;;;;;;16.20;63.25;100854.59;5076861;28;793;-64
2021/01/22 13:40:18;;;;;;;;;;;;;;;16.15;63.11;100852.25;5058949;28;1250;-63
2021/01/22 13:42:44;;;;;;;;;;;;;;;16.16;62.81;100855.78;5076490;28;867;-58
2021/01/22 13:45:09;;;;;;;;;;;;;;;16.05;63.05;100846.75;5058880;28;1340;-64
2021/01/22 13:47:35;;;;;;;;;;;;;;;16.03;63.24;100856.66;5076685;28;738;-63
2021/01/22 13:50:00;;;;;;;;;;;;;;;16.05;63.47;100852.06;5076644;28;816;-63
2021/01/22 13:52:27;;;;;;;;;;;;;;;15.97;62.56;100848.28;5076500;28;993;-64
2021/01/22 13:54:53;;;;;;;;;;;;;;;15.96;62.96;100855.44;5076359;28;1874;-58
2021/01/22 13:57:18;;;;;;;;;;;;;;;15.95;62.81;100842.22;5076125;28;849;-58
2021/01/22 13:59:43;;;;;;;;;;;;;;;15.90;63.78;100823.91;5076117;28;834;-64
2021/01/22 14:02:08;;;;;;;;;;;;;;;15.92;63.36;100835.31;5076384;28;852;-58
2021/01/22 14:04:34;;;;;;;;;;;;;;;15.90;63.82;100832.75;5075915;28;806;-58
2021/01/22 14:06:59;;;;;;;;;;;;;;;15.97;63.48;100838.47;5075949;28;761;-64
2021/01/22 14:09:24;;;;;;;;;;;;;;;15.90;62.65;100827.41;5076213;28;746;-64
2021/01/22 14:11:49;;;;;;;;;;;;;;;15.92;63.61;100821.97;5075714;28;844;-60
2021/01/22 14:14:15;;;;;;;;;;;;;;;15.98;63.61;100839.34;5075898;28;1949;-64
2021/01/22 14:16:40;;;;;;;;;;;;;;;15.90;63.76;100822.06;5058239;28;2328;-60
2021/01/22 14:19:05;;;;;;;;;;;;;;;15.90;63.17;100827.41;5075857;28;741;-58
2021/01/22 14:21:30;;;;;;;;;;;;;;;15.87;63.20;100810.78;5058221;28;1153;-63
2021/01/22 14:23:56;;;;;;;;;;;;;;;15.85;63.81;100815.38;5075904;28;796;-58
2021/01/22 14:26:22;;;;;;;;;;;;;;;15.82;63.92;100819.13;5075639;28;749;-63